Time;durP1;ratioP1;P1;durP2;ratioP2;P2;SDS_P1;SDS_P2;PMS_P1;PMS_P2;Temp;Humidity;BMP_temperature;BMP_pressure;BME280_temperature;BME280_humidity;BME280_pressure;Samples;Min_cycle;Max_cycle;Signal;HPM_P1;HPM_P2
2023/08/04 00:00:49;;;;;;;2.07;1.17;;;;;;;15.66;72.49;97437.56;5034412;28;20462;-73
2023/08/04 00:03:17;;;;;;;2.30;1.00;;;;;;;15.74;72.28;97435.25;5033675;28;20455;-73
2023/08/04 00:05:43;;;;;;;1.83;1.10;;;;;;;15.71;72.39;97434.94;5034729;28;20505;-73
2023/08/04 00:08:11;;;;;;;2.63;1.13;;;;;;;15.61;73.00;97443.78;5036260;28;20554;-72
2023/08/04 00:10:38;;;;;;;2.50;1.17;;;;;;;15.63;72.89;97446.25;5036292;28;20459;-73
2023/08/04 00:13:05;;;;;;;2.07;1.30;;;;;;;15.72;72.84;97442.03;5037434;28;20558;-73
2023/08/04 00:15:32;;;;;;;1.30;1.20;;;;;;;15.77;72.73;97451.13;5032242;28;20944;-73
2023/08/04 00:17:59;;;;;;;1.80;1.57;;;;;;;15.82;72.46;97444.09;5032693;28;21066;-73
2023/08/04 00:20:25;;;;;;;1.43;1.23;;;;;;;15.72;72.86;97439.31;5035090;28;20447;-73
2023/08/04 00:22:52;;;;;;;1.43;1.33;;;;;;;15.51;73.76;97450.97;5032461;28;20894;-73
2023/08/04 00:25:21;;;;;;;1.70;1.30;;;;;;;15.62;73.41;97455.50;5034791;28;21948;-73
2023/08/04 00:27:47;;;;;;;1.83;1.07;;;;;;;15.48;73.86;97440.53;5031605;28;21138;-73
2023/08/04 00:30:15;;;;;;;1.40;1.20;;;;;;;15.54;73.74;97439.56;5033784;28;20553;-73
2023/08/04 00:32:41;;;;;;;1.50;1.07;;;;;;;15.49;74.10;97439.47;5033795;28;20880;-73
2023/08/04 00:35:08;;;;;;;1.50;1.40;;;;;;;15.28;74.81;97435.56;5031868;28;20543;-71
2023/08/04 00:37:37;;;;;;;2.50;1.40;;;;;;;15.13;75.98;97436.16;5016216;28;20501;-73
2023/08/04 00:40:04;;;;;;;2.40;1.33;;;;;;;15.02;76.57;97443.31;5030800;28;20485;-73
2023/08/04 00:42:32;;;;;;;1.63;1.37;;;;;;;15.09;76.38;97443.16;5031035;28;20459;-72
2023/08/04 00:44:59;;;;;;;1.80;1.40;;;;;;;14.98;77.10;97441.31;5027964;28;20555;-73
2023/08/04 00:47:26;;;;;;;2.10;1.50;;;;;;;15.09;76.85;97443.16;5032187;28;20562;-73
2023/08/04 00:49:54;;;;;;;1.70;1.60;;;;;;;14.96;77.18;97443.44;5031983;28;20467;-73
2023/08/04 00:52:21;;;;;;;2.37;1.83;;;;;;;15.11;76.78;97444.56;5031262;28;20550;-73
2023/08/04 00:54:48;;;;;;;2.00;1.80;;;;;;;15.06;77.16;97449.09;5033092;28;20491;-74
2023/08/04 00:57:15;;;;;;;2.90;1.50;;;;;;;15.05;76.94;97444.72;5030716;28;20501;-74
2023/08/04 00:59:45;;;;;;;3.13;1.50;;;;;;;14.82;78.34;97453.00;5030288;28;20471;-73
2023/08/04 01:02:12;;;;;;;2.63;1.83;;;;;;;14.93;78.17;97452.13;5031478;28;20464;-73
2023/08/04 01:04:39;;;;;;;1.40;1.30;;;;;;;14.80;78.67;97445.06;5035365;28;20456;-74
2023/08/04 01:07:16;;;;;;;2.30;1.90;;;;;;;14.68;79.27;97447.84;5033607;28;20462;-73
2023/08/04 01:09:47;;;;;;;2.73;1.90;;;;;;;14.49;80.08;97449.09;5030189;28;20542;-74
2023/08/04 01:12:17;;;;;;;1.67;1.57;;;;;;;14.59;79.67;97454.75;5032724;28;20947;-73
2023/08/04 01:14:45;;;;;;;1.70;1.60;;;;;;;14.58;79.84;97447.66;5030489;28;20574;-73
2023/08/04 01:17:25;;;;;;;1.93;1.60;;;;;;;14.60;80.20;97461.88;5032608;28;20586;-73
2023/08/04 01:19:52;;;;;;;3.00;1.60;;;;;;;14.51;80.48;97457.88;5032805;28;20880;-73
2023/08/04 01:22:21;;;;;;;2.43;1.70;;;;;;;14.57;80.16;97445.19;5036770;28;20471;-72
2023/08/04 01:24:48;;;;;;;1.80;1.63;;;;;;;14.45;80.52;97456.09;5037256;28;20542;-73
2023/08/04 01:27:19;;;;;;;2.17;1.53;;;;;;;14.27;81.29;97453.53;5029890;28;20941;-73
2023/08/04 01:29:46;;;;;;;3.57;2.03;;;;;;;14.15;81.98;97444.53;5032621;28;20455;-73
2023/08/04 01:32:13;;;;;;;2.37;2.00;;;;;;;14.11;82.04;97445.00;5034184;28;20554;-73
2023/08/04 01:34:47;;;;;;;3.10;1.87;;;;;;;14.03;82.77;97444.56;5036852;28;20461;-73
2023/08/04 01:37:14;;;;;;;4.53;1.90;;;;;;;14.08;82.26;97447.38;5032281;28;20503;-73
2023/08/04 01:39:45;;;;;;;2.20;1.87;;;;;;;14.06;82.58;97442.19;5030282;28;20579;-73
2023/08/04 01:42:11;;;;;;;1.97;1.70;;;;;;;14.16;82.08;97438.84;5031857;28;20547;-73
2023/08/04 01:44:38;;;;;;;2.03;1.70;;;;;;;14.18;81.98;97435.91;5029572;28;20995;-73
2023/08/04 01:47:07;;;;;;;2.10;1.60;;;;;;;14.12;82.36;97435.78;5029326;28;20494;-73
2023/08/04 01:49:34;;;;;;;1.37;1.27;;;;;;;14.31;81.85;97441.06;5014251;28;20508;-73
2023/08/04 01:52:01;;;;;;;2.03;1.60;;;;;;;14.26;81.79;97441.81;5033920;28;20953;-73
2023/08/04 01:54:28;;;;;;;2.40;1.73;;;;;;;14.18;82.21;97439.44;5034589;28;20541;-73
2023/08/04 01:56:56;;;;;;;1.60;1.50;;;;;;;14.26;81.93;97443.69;5036526;28;21152;-73
2023/08/04 01:59:23;;;;;;;2.27;1.90;;;;;;;14.36;81.59;97436.56;5038893;28;20572;-73
2023/08/04 02:01:50;;;;;;;2.20;1.80;;;;;;;14.39;81.43;97436.06;5039403;28;20465;-74
2023/08/04 02:04:17;;;;;;;2.87;2.00;;;;;;;14.41;81.28;97441.31;5032271;28;20467;-73
2023/08/04 02:06:43;;;;;;;3.20;1.83;;;;;;;14.50;81.40;97434.41;5032789;28;20960;-73
2023/08/04 02:09:11;;;;;;;1.70;1.60;;;;;;;14.60;80.81;97433.81;5034699;28;20478;-73
2023/08/04 02:11:38;;;;;;;2.47;2.07;;;;;;;14.63;80.51;97436.00;5033926;28;20796;-73
2023/08/04 02:14:06;;;;;;;2.73;2.10;;;;;;;14.55;80.77;97437.25;5035033;28;20533;-73
2023/08/04 02:16:33;;;;;;;4.03;2.00;;;;;;;14.60;80.60;97431.91;5034067;28;21195;-73
2023/08/04 02:19:04;;;;;;;3.30;2.20;;;;;;;14.74;80.32;97425.09;5032569;28;20486;-73
2023/08/04 02:21:31;;;;;;;2.37;2.03;;;;;;;14.74;80.27;97433.25;5043302;28;20490;-73
2023/08/04 02:23:58;;;;;;;2.70;1.97;;;;;;;14.88;79.79;97433.78;5032270;28;20807;-74
2023/08/04 02:26:25;;;;;;;2.10;1.90;;;;;;;14.87;79.68;97440.31;5033688;28;20468;-73
2023/08/04 02:28:53;;;;;;;2.40;1.87;;;;;;;14.79;79.72;97433.34;5032961;28;21094;-74
2023/08/04 02:31:23;;;;;;;2.10;1.90;;;;;;;14.98;79.17;97438.59;5032704;28;20881;-74
2023/08/04 02:33:49;;;;;;;2.53;2.20;;;;;;;15.05;78.95;97447.44;5032009;28;20448;-73
2023/08/04 02:36:17;;;;;;;4.57;2.53;;;;;;;14.82;79.55;97439.38;5033303;28;20915;-74
2023/08/04 02:38:44;;;;;;;2.50;2.30;;;;;;;14.79;79.83;97441.53;5032288;28;20478;-73
2023/08/04 02:41:11;;;;;;;3.50;2.30;;;;;;;14.87;79.57;97445.75;5032588;28;20698;-74
2023/08/04 02:43:38;;;;;;;3.07;2.10;;;;;;;14.95;79.27;97439.06;5017202;28;20460;-73
2023/08/04 02:46:05;;;;;;;2.27;2.10;;;;;;;14.93;79.37;97442.06;5032592;28;20487;-73
2023/08/04 02:48:33;;;;;;;2.60;2.40;;;;;;;14.70;80.04;97444.88;5030078;28;20499;-73
2023/08/04 02:51:02;;;;;;;3.13;2.40;;;;;;;14.56;81.04;97441.63;5033916;28;20478;-74
2023/08/04 02:53:29;;;;;;;3.80;2.23;;;;;;;14.71;80.76;97443.81;5032521;28;20855;-74
2023/08/04 02:55:56;;;;;;;3.90;2.00;;;;;;;14.64;80.30;97435.78;5031829;28;20819;-73
2023/08/04 02:58:22;;;;;;;3.63;2.23;;;;;;;14.72;80.35;97443.56;5031212;28;20875;-74
2023/08/04 03:00:49;;;;;;;3.33;2.00;;;;;;;14.66;80.40;97438.25;5031348;28;20477;-73
2023/08/04 03:03:17;;;;;;;2.20;2.00;;;;;;;14.68;80.43;97442.41;5033576;28;20454;-73
2023/08/04 03:05:45;;;;;;;2.50;2.07;;;;;;;14.77;80.14;97443.66;5032608;28;20460;-74
2023/08/04 03:08:12;;;;;;;3.43;2.00;;;;;;;14.77;79.85;97442.84;5033445;28;20516;-73
2023/08/04 03:10:40;;;;;;;2.20;2.00;;;;;;;15.00;78.92;97440.00;5038115;28;20819;-73
2023/08/04 03:13:07;;;;;;;2.30;1.83;;;;;;;14.97;78.75;97445.09;5035182;28;20561;-73
2023/08/04 03:15:33;;;;;;;3.10;1.60;;;;;;;15.06;78.29;97443.63;5036665;28;20490;-73
2023/08/04 03:18:00;;;;;;;1.90;1.77;;;;;;;15.10;78.61;97445.63;5033237;28;20495;-73
2023/08/04 03:20:29;;;;;;;4.53;2.40;;;;;;;14.90;79.40;97448.00;5030858;28;20460;-73
2023/08/04 03:22:58;;;;;;;2.10;1.90;;;;;;;14.72;80.37;97443.56;5041488;28;20544;-73
2023/08/04 03:25:25;;;;;;;2.83;1.97;;;;;;;14.74;80.51;97444.16;5030066;28;21009;-73
2023/08/04 03:27:52;;;;;;;2.40;1.93;;;;;;;15.06;78.96;97446.38;5030756;28;20507;-74
2023/08/04 03:30:19;;;;;;;2.67;1.70;;;;;;;15.11;78.83;97443.72;5038312;28;20463;-74
2023/08/04 03:32:45;;;;;;;1.53;1.37;;;;;;;15.35;77.59;97458.88;5035167;28;21006;-73
2023/08/04 03:35:12;;;;;;;1.67;1.57;;;;;;;15.54;76.32;97458.66;5033753;28;20510;-73
2023/08/04 03:37:40;;;;;;;4.00;2.00;;;;;;;15.45;76.85;97455.50;5030930;28;20524;-73
2023/08/04 03:40:09;;;;;;;1.87;1.30;;;;;;;15.58;76.01;97451.66;5032563;28;20471;-74
2023/08/04 03:42:38;;;;;;;1.50;1.30;;;;;;;15.53;75.92;97449.63;5031060;28;20479;-73
2023/08/04 03:45:06;;;;;;;2.60;1.50;;;;;;;15.66;75.23;97445.75;5032309;28;20495;-73
2023/08/04 03:47:34;;;;;;;1.53;1.43;;;;;;;15.62;75.61;97448.16;5030969;28;20538;-74
2023/08/04 03:50:01;;;;;;;2.70;1.57;;;;;;;15.75;75.03;97452.47;5029507;28;20780;-72
2023/08/04 03:52:28;;;;;;;2.47;1.80;;;;;;;15.46;76.28;97454.41;5035451;28;21039;-73
2023/08/04 03:54:55;;;;;;;1.73;1.60;;;;;;;15.68;75.45;97446.34;5029191;28;20463;-73
2023/08/04 03:57:23;;;;;;;2.33;1.37;;;;;;;15.54;75.99;97445.84;5031685;28;20602;-73
2023/08/04 03:59:51;;;;;;;1.93;1.43;;;;;;;15.41;76.14;97446.16;5030538;28;20956;-73
2023/08/04 04:02:18;;;;;;;2.77;1.40;;;;;;;15.18;77.03;97449.88;5030870;28;20483;-74
2023/08/04 04:04:45;;;;;;;2.40;1.33;;;;;;;15.27;76.96;97450.28;5029868;28;20452;-74
2023/08/04 04:07:11;;;;;;;1.50;1.40;;;;;;;15.07;76.83;97431.66;5028822;28;20476;-73
2023/08/04 04:09:38;;;;;;;1.67;1.37;;;;;;;15.42;76.29;97448.63;5030070;28;20455;-74
2023/08/04 04:12:06;;;;;;;2.17;1.30;;;;;;;15.69;74.58;97448.00;5011565;28;20538;-73
2023/08/04 04:14:34;;;;;;;2.00;1.67;;;;;;;15.82;74.15;97450.38;5032105;28;20508;-73
2023/08/04 04:17:02;;;;;;;3.70;1.70;;;;;;;15.30;76.38;97447.03;5010445;28;20480;-73
2023/08/04 04:19:30;;;;;;;2.33;1.57;;;;;;;15.64;75.03;97445.19;5029039;28;20496;-73
2023/08/04 04:21:57;;;;;;;1.90;1.40;;;;;;;15.68;74.84;97454.53;5031078;28;20459;-73
2023/08/04 04:24:24;;;;;;;2.10;1.20;;;;;;;15.82;73.79;97452.28;5029894;28;20959;-74
2023/08/04 04:26:50;;;;;;;3.47;1.87;;;;;;;15.69;74.37;97453.44;5032644;28;20456;-74
2023/08/04 04:29:17;;;;;;;2.67;1.60;;;;;;;15.96;73.52;97453.56;5030574;28;20456;-74
2023/08/04 04:31:46;;;;;;;1.80;1.70;;;;;;;16.07;73.20;97458.13;5031984;28;20551;-73
2023/08/04 04:34:13;;;;;;;2.43;1.60;;;;;;;15.95;73.37;97444.56;5039691;28;20458;-73
2023/08/04 04:36:40;;;;;;;3.30;2.00;;;;;;;15.91;74.04;97457.09;5029419;28;20444;-73
2023/08/04 04:39:07;;;;;;;3.33;1.47;;;;;;;15.68;74.62;97459.97;5030452;28;20575;-73
2023/08/04 04:41:34;;;;;;;1.90;1.60;;;;;;;15.79;74.88;97450.88;5030459;28;20878;-74
2023/08/04 04:44:01;;;;;;;2.23;1.60;;;;;;;15.86;74.87;97464.38;5029236;28;20448;-73
2023/08/04 04:46:28;;;;;;;2.33;1.63;;;;;;;15.89;75.02;97464.69;5029657;28;20456;-73
2023/08/04 04:48:56;;;;;;;3.20;1.77;;;;;;;15.75;75.85;97463.38;5028441;28;20595;-73
2023/08/04 04:51:23;;;;;;;2.00;1.70;;;;;;;15.30;77.49;97475.13;5038690;28;20581;-73
2023/08/04 04:53:50;;;;;;;2.77;1.80;;;;;;;15.64;76.37;97480.66;5031185;28;20788;-74
2023/08/04 04:56:17;;;;;;;1.87;1.63;;;;;;;15.69;76.00;97475.28;5030722;28;20451;-74
2023/08/04 04:58:44;;;;;;;1.70;1.60;;;;;;;15.79;75.94;97486.34;5028551;28;20495;-77
2023/08/04 05:01:11;;;;;;;2.23;1.93;;;;;;;16.09;73.90;97481.34;5035103;28;20455;-73
2023/08/04 05:03:37;;;;;;;1.90;1.77;;;;;;;15.91;74.39;97478.91;5034223;28;20462;-73
2023/08/04 05:06:06;;;;;;;2.03;1.53;;;;;;;16.22;73.16;97488.38;5035339;28;20459;-73
2023/08/04 05:08:33;;;;;;;4.27;1.87;;;;;;;16.15;73.46;97474.06;5028792;28;20476;-73
2023/08/04 05:10:59;;;;;;;2.43;1.60;;;;;;;16.24;73.78;97485.41;5044515;28;20513;-71
2023/08/04 05:13:26;;;;;;;1.93;1.50;;;;;;;16.09;74.29;97475.06;5028100;28;20519;-73
2023/08/04 05:15:53;;;;;;;2.57;1.67;;;;;;;16.14;74.17;97483.34;5029729;28;20459;-72
2023/08/04 05:18:20;;;;;;;2.27;1.50;;;;;;;15.86;75.54;97481.56;5028329;28;21169;-72
2023/08/04 05:20:48;;;;;;;2.60;1.60;;;;;;;15.72;76.17;97482.97;5028261;28;20546;-72
2023/08/04 05:23:16;;;;;;;3.53;1.57;;;;;;;16.03;74.72;97498.72;5027575;28;20731;-80
2023/08/04 05:25:43;;;;;;;1.43;1.33;;;;;;;16.04;74.42;97489.47;5029192;28;20451;-79
2023/08/04 05:28:22;;;;;;;3.17;2.20;;;;;;;16.03;74.40;97490.53;5026113;28;20494;-73
2023/08/04 05:30:49;;;;;;;4.63;1.50;;;;;;;15.87;74.58;97499.59;5025444;28;20456;-76
2023/08/04 05:33:16;;;;;;;2.13;1.63;;;;;;;15.73;74.92;97496.34;5027448;28;20452;-74
2023/08/04 05:35:47;;;;;;;1.63;1.30;;;;;;;15.98;74.93;97495.91;5033098;28;20463;-74
2023/08/04 05:38:15;;;;;;;2.50;1.50;;;;;;;15.92;75.25;97502.38;5028975;28;20606;-73
2023/08/04 05:40:43;;;;;;;4.77;1.93;;;;;;;16.02;74.91;97508.00;5031493;28;20478;-69
2023/08/04 05:43:11;;;;;;;5.37;4.57;;;;;;;15.93;75.62;97516.84;5030908;28;20459;-73
2023/08/04 05:45:39;;;;;;;2.50;1.57;;;;;;;15.66;76.14;97508.50;5031819;28;20444;-73
2023/08/04 05:48:06;;;;;;;3.47;1.30;;;;;;;15.77;76.63;97511.16;4939524;28;20490;-73
2023/08/04 05:50:33;;;;;;;2.40;1.40;;;;;;;15.98;75.98;97509.56;5006385;28;20463;-73
2023/08/04 05:53:01;;;;;;;2.13;1.77;;;;;;;16.21;75.47;97505.00;5015086;28;20554;-72
2023/08/04 05:55:29;;;;;;;2.30;1.37;;;;;;;15.72;76.84;97513.81;5020372;28;20659;-71
2023/08/04 05:57:56;;;;;;;3.20;1.57;;;;;;;15.89;76.93;97505.63;5020746;28;20935;-72
2023/08/04 06:00:23;;;;;;;2.27;1.53;;;;;;;16.16;74.33;97505.75;5013517;28;20467;-73
2023/08/04 06:02:50;;;;;;;4.13;1.70;;;;;;;15.91;75.37;97510.84;5021287;28;20460;-72
2023/08/04 06:05:17;;;;;;;2.90;1.27;;;;;;;15.99;75.21;97497.56;5013430;28;20553;-73
2023/08/04 06:07:44;;;;;;;3.20;1.60;;;;;;;15.88;75.46;97501.25;5026435;28;20486;-74
2023/08/04 06:10:11;;;;;;;2.60;1.40;;;;;;;16.21;73.10;97508.56;5022168;28;20492;-73
2023/08/04 06:12:39;;;;;;;1.80;1.00;;;;;;;16.26;74.00;97502.31;5024370;28;20448;-73
2023/08/04 06:15:07;;;;;;;1.90;1.60;;;;;;;16.17;75.15;97512.03;5022208;28;20460;-73
2023/08/04 06:17:33;;;;;;;3.30;1.43;;;;;;;16.38;73.99;97516.72;5024992;28;20472;-72
2023/08/04 06:20:00;;;;;;;2.80;1.43;;;;;;;16.53;73.38;97514.19;5024694;28;20452;-72
2023/08/04 06:22:27;;;;;;;1.43;1.33;;;;;;;16.44;73.27;97516.53;5020442;28;20558;-72
2023/08/04 06:24:54;;;;;;;3.27;1.50;;;;;;;16.24;74.40;97509.97;5022592;28;20464;-72
2023/08/04 06:27:21;;;;;;;2.83;1.37;;;;;;;16.48;73.77;97511.41;5025837;28;20468;-73
2023/08/04 06:29:49;;;;;;;3.63;1.63;;;;;;;16.57;74.12;97515.31;5027439;28;20869;-72
2023/08/04 06:32:18;;;;;;;2.10;1.40;;;;;;;16.71;73.17;97522.09;5028560;28;20543;-72
2023/08/04 06:34:45;;;;;;;2.33;1.67;;;;;;;16.69;73.20;97518.78;5022486;28;20550;-73
2023/08/04 06:37:12;;;;;;;1.63;1.30;;;;;;;16.84;72.05;97523.63;5028053;28;20472;-73
2023/08/04 06:39:39;;;;;;;1.70;1.60;;;;;;;16.93;71.92;97537.66;5026827;28;20511;-72
2023/08/04 06:42:06;;;;;;;4.10;2.00;;;;;;;16.76;72.04;97530.38;5027873;28;20453;-71
2023/08/04 06:44:33;;;;;;;2.17;1.40;;;;;;;16.80;72.09;97536.16;5026661;28;20535;-85
2023/08/04 06:47:01;;;;;;;3.83;1.70;;;;;;;17.20;71.19;97527.59;5028732;28;20491;-70
2023/08/04 06:49:28;;;;;;;1.53;1.43;;;;;;;17.27;70.88;97530.13;5022356;28;20452;-73
2023/08/04 06:51:54;;;;;;;1.80;1.27;;;;;;;17.82;69.46;97520.84;5022504;28;20476;-73
2023/08/04 06:54:21;;;;;;;2.20;1.43;;;;;;;18.04;67.33;97527.84;5024624;28;20990;-73
2023/08/04 06:56:48;;;;;;;1.83;1.40;;;;;;;18.06;66.59;97522.94;5023126;28;20999;-74
2023/08/04 06:59:15;;;;;;;2.70;1.40;;;;;;;18.57;65.12;97527.91;5023107;28;21011;-75
2023/08/04 07:01:42;;;;;;;2.10;1.40;;;;;;;18.63;63.23;97526.88;5016598;28;20773;-73
2023/08/04 07:04:11;;;;;;;1.30;1.00;;;;;;;19.12;62.14;97528.19;5019491;28;20954;-73
2023/08/04 07:06:38;;;;;;;3.47;1.27;;;;;;;18.70;62.20;97525.53;5021990;28;20824;-75
2023/08/04 07:09:05;;;;;;;1.53;1.00;;;;;;;18.67;61.66;97528.81;5025946;28;20460;-74
2023/08/04 07:11:31;;;;;;;4.03;1.00;;;;;;;19.29;61.64;97527.13;5025110;28;20537;-75
2023/08/04 07:13:58;;;;;;;2.30;2.10;;;;;;;19.63;60.25;97528.31;5025461;28;20458;-74
2023/08/04 07:16:25;;;;;;;2.63;1.53;;;;;;;19.56;59.74;97524.19;5020568;28;20517;-74
2023/08/04 07:18:52;;;;;;;2.30;1.20;;;;;;;19.62;59.38;97525.84;5019661;28;21024;-74
2023/08/04 07:21:20;;;;;;;2.60;2.20;;;;;;;19.60;60.03;97528.03;5025026;28;20546;-75
2023/08/04 07:23:47;;;;;;;2.97;1.77;;;;;;;19.52;60.31;97525.81;5022618;28;20462;-78
2023/08/04 07:26:14;;;;;;;2.47;1.20;;;;;;;19.57;60.38;97528.56;5020267;28;20448;-75
2023/08/04 07:28:40;;;;;;;2.77;1.40;;;;;;;19.66;60.18;97529.69;5022889;28;20534;-73
2023/08/04 07:31:09;;;;;;;1.50;1.10;;;;;;;20.49;58.02;97537.63;5025133;28;21194;-73
2023/08/04 07:33:36;;;;;;;3.60;1.50;;;;;;;20.77;56.51;97540.63;5019290;28;20991;-74
2023/08/04 07:36:04;;;;;;;1.70;1.10;;;;;;;20.61;56.68;97536.25;5017360;28;20546;-71
2023/08/04 07:38:33;;;;;;;1.80;1.30;;;;;;;20.33;57.29;97543.16;5020583;28;20890;-72
2023/08/04 07:40:59;;;;;;;16.43;15.03;;;;;;;20.36;57.14;97555.50;5019359;28;20466;-71
2023/08/04 07:43:26;;;;;;;4.60;4.20;;;;;;;20.32;57.81;97548.91;5024641;28;21011;-72
2023/08/04 07:45:54;;;;;;;2.23;1.40;;;;;;;20.35;57.58;97559.38;5019385;28;20484;-71
2023/08/04 07:48:21;;;;;;;1.63;1.27;;;;;;;20.18;57.85;97558.81;5013767;28;21961;-72
2023/08/04 07:50:50;;;;;;;1.70;1.33;;;;;;;20.24;57.94;97560.47;5007183;28;20484;-71
2023/08/04 07:53:17;;;;;;;1.73;1.53;;;;;;;19.17;60.39;97565.75;5018963;28;20498;-71
2023/08/04 07:55:54;;;;;;;2.57;1.80;;;;;;;19.44;60.16;97574.66;5005988;28;20458;-73
2023/08/04 07:58:21;;;;;;;3.50;1.57;;;;;;;19.41;60.76;97555.16;5017725;28;20487;-72
2023/08/04 08:00:49;;;;;;;2.80;1.60;;;;;;;18.96;61.37;97558.56;5022365;28;20449;-72
2023/08/04 08:03:15;;;;;;;3.10;1.60;;;;;;;19.17;60.71;97564.97;5017193;28;20534;-72
2023/08/04 08:15:17;;;;;;;1.67;1.50;;;;;;;20.20;58.04;97551.13;4992800;28;20598;-71
2023/08/04 08:17:44;;;;;;;1.50;1.17;;;;;;;20.54;56.29;97545.88;5039196;28;20599;-70
2023/08/04 08:20:11;;;;;;;1.90;1.30;;;;;;;20.94;55.08;97544.94;5041229;28;20531;-69
2023/08/04 08:22:40;;;;;;;3.50;1.13;;;;;;;21.29;54.70;97533.81;5042695;28;20530;-71
2023/08/04 08:25:10;;;;;;;1.63;1.20;;;;;;;21.72;54.68;97537.69;5038206;28;20469;-70
2023/08/04 08:27:36;;;;;;;3.20;1.30;;;;;;;22.12;53.46;97521.94;5037223;28;20490;-71
2023/08/04 08:30:04;;;;;;;1.70;1.27;;;;;;;21.88;53.68;97527.34;5034825;28;21047;-71
2023/08/04 08:32:32;;;;;;;2.80;2.20;;;;;;;21.89;53.65;97522.66;5035126;28;20959;-71
2023/08/04 08:34:59;;;;;;;1.23;1.13;;;;;;;21.98;52.71;97519.00;5039026;28;20522;-71
2023/08/04 08:37:25;;;;;;;2.27;1.20;;;;;;;21.99;53.32;97517.06;5039363;28;21061;-71
2023/08/04 08:39:52;;;;;;;2.30;1.30;;;;;;;22.48;52.62;97518.84;5028086;28;20547;-71
2023/08/04 08:42:19;;;;;;;2.50;1.23;;;;;;;22.64;51.04;97520.34;5036475;28;20534;-70
2023/08/04 08:44:46;;;;;;;2.40;1.40;;;;;;;23.73;48.78;97512.84;5031912;28;20554;-71
2023/08/04 08:47:13;;;;;;;1.73;1.17;;;;;;;24.72;46.25;97523.59;5035008;28;20507;-71
2023/08/04 08:49:46;;;;;;;1.90;1.60;;;;;;;25.17;44.96;97523.84;5029196;28;20517;-71
2023/08/04 08:52:13;;;;;;;3.73;1.90;;;;;;;24.72;45.32;97537.44;5035660;28;20469;-71
2023/08/04 08:54:40;;;;;;;2.87;2.50;;;;;;;25.19;44.43;97537.38;5030390;28;20499;-73
2023/08/04 08:57:07;;;;;;;1.23;1.13;;;;;;;25.89;42.60;97520.31;5033656;28;20558;-71
2023/08/04 08:59:34;;;;;;;1.20;0.93;;;;;;;25.75;43.00;97534.22;5039102;28;21207;-70
2023/08/04 09:02:02;;;;;;;2.40;2.20;;;;;;;24.88;44.21;97540.75;5037560;28;20475;-72
2023/08/04 09:04:32;;;;;;;1.33;1.03;;;;;;;24.50;45.69;97542.03;5039224;28;20452;-82
2023/08/04 09:07:01;;;;;;;1.30;1.10;;;;;;;24.05;46.71;97545.22;5037982;28;20483;-73
2023/08/04 09:09:27;;;;;;;1.73;1.20;;;;;;;23.71;47.85;97547.47;5037967;28;21015;-70
2023/08/04 09:11:55;;;;;;;1.80;1.10;;;;;;;23.84;47.69;97543.94;5038559;28;20874;-70
2023/08/04 09:14:22;;;;;;;2.10;1.00;;;;;;;24.70;45.89;97550.75;5038533;28;20490;-70
2023/08/04 09:16:49;;;;;;;1.10;1.00;;;;;;;25.91;42.88;97531.91;5040741;28;20483;-69
2023/08/04 09:19:16;;;;;;;2.53;1.70;;;;;;;26.68;41.21;97524.09;5036454;28;21258;-70
2023/08/04 09:21:44;;;;;;;1.73;1.00;;;;;;;26.25;42.04;97528.59;5037082;28;20459;-70
2023/08/04 09:24:13;;;;;;;1.57;0.97;;;;;;;25.73;42.95;97526.22;5042486;28;20482;-71
2023/08/04 09:26:44;;;;;;;1.70;1.30;;;;;;;25.55;43.61;97527.16;5029273;28;20478;-71
2023/08/04 09:29:12;;;;;;;1.30;0.90;;;;;;;25.79;42.92;97529.69;5018071;28;20566;-71
2023/08/04 09:31:40;;;;;;;2.33;1.10;;;;;;;26.27;42.25;97523.53;5024871;28;20984;-71
2023/08/04 09:34:08;;;;;;;1.70;1.27;;;;;;;26.21;41.68;97524.78;5025335;28;20512;-71
2023/08/04 09:36:39;;;;;;;1.53;1.33;;;;;;;26.75;41.03;97518.91;5024924;28;20476;-82
2023/08/04 09:39:06;;;;;;;1.30;0.93;;;;;;;26.68;41.03;97523.28;5028772;28;20452;-82
2023/08/04 09:41:34;;;;;;;2.60;0.90;;;;;;;25.89;42.78;97518.38;5028671;28;20547;-82
2023/08/04 09:44:05;;;;;;;1.80;1.00;;;;;;;25.41;44.05;97535.50;5029772;28;20542;-82
2023/08/04 09:46:32;;;;;;;2.27;1.00;;;;;;;25.12;44.04;97526.72;5028812;28;20491;-83
2023/08/04 09:48:59;;;;;;;1.17;1.03;;;;;;;24.91;44.81;97528.25;5030472;28;20452;-83
2023/08/04 09:51:26;;;;;;;1.70;1.30;;;;;;;24.68;45.16;97528.13;5025853;28;20464;-83
2023/08/04 09:53:55;;;;;;;1.73;1.27;;;;;;;24.57;45.95;97529.44;5029075;28;20533;-86
2023/08/04 09:56:25;;;;;;;1.33;1.03;;;;;;;24.41;46.46;97526.13;5029824;28;20857;-83
2023/08/04 09:58:53;;;;;;;1.20;1.03;;;;;;;25.36;44.57;97521.75;5021882;28;20986;-71
2023/08/04 10:01:20;;;;;;;1.73;0.90;;;;;;;25.95;43.06;97517.13;5025804;28;20505;-71
2023/08/04 10:03:50;;;;;;;0.80;0.80;;;;;;;26.88;41.25;97505.25;5030715;28;20483;-71
2023/08/04 10:06:18;;;;;;;1.43;1.07;;;;;;;27.05;40.73;97502.56;5029335;28;20987;-72
2023/08/04 10:08:45;;;;;;;1.50;1.00;;;;;;;26.69;41.38;97513.81;5024171;28;20463;-72
2023/08/04 10:11:12;;;;;;;2.40;1.00;;;;;;;25.82;43.42;97511.59;5028482;28;20447;-71
2023/08/04 10:13:41;;;;;;;1.10;0.90;;;;;;;25.73;44.01;97508.75;5028812;28;20499;-71
2023/08/04 10:16:11;;;;;;;2.50;1.20;;;;;;;25.34;44.65;97515.69;5027759;28;20476;-70
2023/08/04 10:18:49;;;;;;;2.00;1.33;;;;;;;24.76;45.52;97519.09;5028456;28;20590;-70
2023/08/04 10:21:17;;;;;;;1.83;1.20;;;;;;;24.46;45.94;97514.13;5030860;28;20470;-70
2023/08/04 10:23:44;;;;;;;1.00;0.90;;;;;;;23.94;47.21;97518.06;5026028;28;20899;-71
2023/08/04 10:26:12;;;;;;;3.17;1.00;;;;;;;23.55;48.65;97521.16;5028353;28;20507;-70
2023/08/04 10:29:01;;;;;;;1.43;1.00;;;;;;;23.42;48.93;97523.50;5027693;28;20491;-71
2023/08/04 10:31:44;;;;;;;1.30;1.07;;;;;;;22.60;50.85;97517.34;5028522;28;20459;-73
2023/08/04 10:34:33;;;;;;;1.80;0.80;;;;;;;22.28;52.08;97508.84;5025820;28;20508;-71
2023/08/04 10:37:04;;;;;;;1.37;1.27;;;;;;;22.18;53.13;97512.50;5018237;28;21125;-71
2023/08/04 10:39:32;;;;;;;1.57;1.27;;;;;;;22.22;52.19;97508.06;5023199;28;20456;-71
2023/08/04 10:42:00;;;;;;;1.53;0.90;;;;;;;22.27;52.52;97515.47;5024213;28;20548;-70
2023/08/04 10:44:29;;;;;;;1.23;1.00;;;;;;;22.37;52.18;97512.63;5016616;28;20510;-70
2023/08/04 10:47:01;;;;;;;1.60;1.40;;;;;;;22.45;51.97;97512.78;5015992;28;20591;-70
2023/08/04 10:49:29;;;;;;;1.47;1.10;;;;;;;22.61;51.13;97516.22;5022390;28;20463;-70
2023/08/04 10:51:58;;;;;;;1.53;1.40;;;;;;;23.48;49.77;97526.19;5025668;28;20467;-70
2023/08/04 10:54:24;;;;;;;2.40;1.00;;;;;;;23.95;48.28;97526.06;5025950;28;20489;-70
2023/08/04 10:56:51;;;;;;;1.63;1.20;;;;;;;24.21;47.98;97531.16;5025634;28;20554;-70
2023/08/04 10:59:18;;;;;;;1.60;1.47;;;;;;;23.89;48.37;97532.78;5023480;28;20463;-70
2023/08/04 11:01:47;;;;;;;1.70;1.60;;;;;;;23.71;48.88;97537.22;5025533;28;20479;-70
2023/08/04 11:04:15;;;;;;;2.03;1.40;;;;;;;23.40;50.38;97547.84;5024105;28;20464;-70
2023/08/04 11:06:42;;;;;;;1.20;1.10;;;;;;;23.11;52.00;97545.19;5027115;28;20476;-70
2023/08/04 11:09:10;;;;;;;1.10;1.00;;;;;;;22.29;54.45;97538.88;5022684;28;20458;-70
2023/08/04 11:11:37;;;;;;;1.60;1.00;;;;;;;22.12;54.86;97544.81;5026297;28;20554;-69
2023/08/04 11:14:06;;;;;;;1.23;1.13;;;;;;;22.15;55.21;97548.09;5024700;28;20555;-69
2023/08/04 11:16:35;;;;;;;1.33;1.23;;;;;;;22.12;56.15;97560.53;5027375;28;20506;-69
2023/08/04 11:19:04;;;;;;;1.93;1.70;;;;;;;21.95;57.53;97560.91;5023450;28;20448;-69
2023/08/04 11:21:32;;;;;;;2.37;1.50;;;;;;;21.67;57.61;97567.19;5023674;28;20468;-69
2023/08/04 11:23:59;;;;;;;5.63;1.60;;;;;;;21.70;57.35;97563.88;5027234;28;20529;-69
2023/08/04 11:26:28;;;;;;;1.83;1.40;;;;;;;21.76;57.70;97562.72;5025804;28;20575;-69
2023/08/04 11:28:57;;;;;;;2.10;1.50;;;;;;;21.53;57.65;97560.66;5024475;28;20867;-69
2023/08/04 11:31:24;;;;;;;3.97;2.10;;;;;;;21.31;57.60;97570.13;5020158;28;20471;-69
2023/08/04 11:33:52;;;;;;;6.27;2.27;;;;;;;21.31;57.55;97567.38;5020016;28;20458;-69
2023/08/04 11:36:18;;;;;;;1.77;1.67;;;;;;;21.25;57.12;97568.50;5026446;28;20571;-69
2023/08/04 11:38:46;;;;;;;2.43;1.80;;;;;;;20.95;58.11;97574.09;5022597;28;20551;-68
2023/08/04 11:41:14;;;;;;;1.53;1.20;;;;;;;21.04;59.15;97566.94;5021517;28;20510;-68
2023/08/04 11:43:40;;;;;;;1.80;1.00;;;;;;;20.85;59.55;97574.13;5022330;28;20456;-69
2023/08/04 11:46:07;;;;;;;1.37;1.20;;;;;;;20.42;61.74;97576.44;5024582;28;20519;-68